Time;durP1;ratioP1;P1;durP2;ratioP2;P2;SDS_P1;SDS_P2;PMS_P1;PMS_P2;Temp;Humidity;BMP_temperature;BMP_pressure;BME280_temperature;BME280_humidity;BME280_pressure;Samples;Min_cycle;Max_cycle;Signal;HPM_P1;HPM_P2
2021/06/25 00:00:33;;;;;;;;;;;;;;;22.45;80.75;100714.19;5054008;28;1928;-43
2021/06/25 00:02:59;;;;;;;;;;;;;;;22.46;80.75;100732.03;5053524;28;1671;-43
2021/06/25 00:05:26;;;;;;;;;;;;;;;22.44;80.71;100713.34;5057344;28;1719;-44
2021/06/25 00:07:54;;;;;;;;;;;;;;;22.47;80.84;100704.09;5062538;28;935;-43
2021/06/25 00:10:21;;;;;;;;;;;;;;;22.47;80.75;100722.94;5065456;28;1982;-43
2021/06/25 00:12:47;;;;;;;;;;;;;;;22.45;80.53;100719.56;5064483;28;1998;-43
2021/06/25 00:15:15;;;;;;;;;;;;;;;22.45;80.77;100724.97;5063302;28;1643;-43
2021/06/25 00:17:41;;;;;;;;;;;;;;;22.46;80.67;100706.94;5059168;28;1739;-43
2021/06/25 00:20:08;;;;;;;;;;;;;;;22.45;80.63;100716.88;5064670;28;1973;-43
2021/06/25 00:22:35;;;;;;;;;;;;;;;22.44;80.75;100702.56;5062883;28;1091;-43
2021/06/25 00:25:03;;;;;;;;;;;;;;;22.45;80.72;100714.19;5063783;28;1990;-43
2021/06/25 00:27:30;;;;;;;;;;;;;;;22.44;80.48;100712.47;5063745;28;1786;-43
2021/06/25 00:29:56;;;;;;;;;;;;;;;22.47;80.45;100700.56;5063257;28;1854;-43
2021/06/25 00:32:23;;;;;;;;;;;;;;;22.43;80.70;100694.63;5063120;28;1695;-43
2021/06/25 00:34:49;;;;;;;;;;;;;;;22.46;80.74;100713.16;5060634;28;1776;-44
2021/06/25 00:37:16;;;;;;;;;;;;;;;22.43;80.66;100695.47;5065596;28;1001;-43
2021/06/25 00:39:43;;;;;;;;;;;;;;;22.46;80.83;100691.59;5060561;28;1972;-43
2021/06/25 00:42:12;;;;;;;;;;;;;;;22.45;80.64;100695.31;5062698;28;1747;-43
2021/06/25 00:44:41;;;;;;;;;;;;;;;22.44;80.60;100690.91;5062608;28;1675;-43
2021/06/25 00:47:09;;;;;;;;;;;;;;;22.44;80.70;100707.09;5063196;28;1811;-43
2021/06/25 00:49:35;;;;;;;;;;;;;;;22.46;80.50;100702.38;5065620;28;1785;-43
2021/06/25 00:52:02;;;;;;;;;;;;;;;22.45;80.61;100687.22;5062610;28;992;-42
2021/06/25 00:54:29;;;;;;;;;;;;;;;22.43;80.73;100678.47;5058301;28;1782;-43
2021/06/25 00:56:56;;;;;;;;;;;;;;;22.42;80.80;100682.16;5061993;28;1749;-43
2021/06/25 00:59:24;;;;;;;;;;;;;;;22.43;80.77;100684.69;5063932;28;1901;-43
2021/06/25 01:01:50;;;;;;;;;;;;;;;22.44;80.43;100694.47;5062556;28;1682;-43
2021/06/25 01:04:17;;;;;;;;;;;;;;;22.44;80.64;100680.13;5064118;28;1923;-43
2021/06/25 01:06:44;;;;;;;;;;;;;;;22.48;80.34;100683.38;5064875;28;2037;-43
2021/06/25 01:09:10;;;;;;;;;;;;;;;22.43;80.71;100667.69;5055663;28;1918;-43
2021/06/25 01:11:37;;;;;;;;;;;;;;;22.48;80.54;100689.59;5057227;28;1764;-43
2021/06/25 01:14:04;;;;;;;;;;;;;;;22.45;80.49;100687.22;5057240;28;1663;-43
2021/06/25 01:16:32;;;;;;;;;;;;;;;22.46;80.72;100672.75;5056853;28;2043;-43
2021/06/25 01:18:58;;;;;;;;;;;;;;;22.42;80.60;100666.84;5057052;28;1909;-43
2021/06/25 01:21:26;;;;;;;;;;;;;;;22.43;80.57;100667.69;5068484;28;1009;-43
2021/06/25 01:23:53;;;;;;;;;;;;;;;22.47;80.49;100690.63;5059555;28;1725;-43
2021/06/25 01:26:19;;;;;;;;;;;;;;;22.43;80.70;100683.84;5068985;28;1780;-43
2021/06/25 01:28:46;;;;;;;;;;;;;;;22.45;80.33;100684.53;5066767;28;1841;-43
2021/06/25 01:31:13;;;;;;;;;;;;;;;22.43;80.66;100673.06;5067569;28;1853;-43
2021/06/25 01:33:39;;;;;;;;;;;;;;;22.42;80.67;100669.56;5068062;28;1103;-43
2021/06/25 01:36:06;;;;;;;;;;;;;;;22.42;80.52;100671.38;5068029;28;1833;-43
2021/06/25 01:38:34;;;;;;;;;;;;;;;22.41;80.77;100689.41;5058717;28;1935;-43
2021/06/25 01:41:01;;;;;;;;;;;;;;;22.42;80.46;100687.53;5066250;28;1909;-44
2021/06/25 01:43:27;;;;;;;;;;;;;;;22.46;80.85;100683.53;5068016;28;1032;-44
2021/06/25 01:45:54;;;;;;;;;;;;;;;22.40;80.63;100682.34;5065293;28;1047;-42
2021/06/25 01:48:21;;;;;;;;;;;;;;;22.44;80.68;100699.00;5069791;28;1998;-43
2021/06/25 01:50:47;;;;;;;;;;;;;;;22.41;80.74;100689.41;5067328;28;1900;-43
2021/06/25 01:53:15;;;;;;;;;;;;;;;22.41;80.67;100677.78;5057709;28;1951;-44
2021/06/25 01:55:44;;;;;;;;;;;;;;;22.43;80.64;100689.25;5068009;28;1423;-43
2021/06/25 01:58:11;;;;;;;;;;;;;;;22.42;80.71;100693.81;5067721;28;1809;-43
2021/06/25 02:00:38;;;;;;;;;;;;;;;22.43;80.43;100690.09;5165192;22;3427;-44
2021/06/25 02:03:05;;;;;;;;;;;;;;;22.43;80.67;100694.63;5052947;28;1770;-43
2021/06/25 02:05:32;;;;;;;;;;;;;;;22.41;80.33;100696.66;5056025;28;2092;-42
2021/06/25 02:08:01;;;;;;;;;;;;;;;22.42;80.64;100688.41;5054501;28;1822;-42
2021/06/25 02:10:28;;;;;;;;;;;;;;;22.42;80.54;100684.84;5055705;28;1734;-42
2021/06/25 02:13:00;;;;;;;;;;;;;;;22.41;80.55;100675.09;5055788;28;1803;-42
2021/06/25 02:15:27;;;;;;;;;;;;;;;22.45;80.47;100681.84;5055602;28;1809;-42
2021/06/25 02:17:55;;;;;;;;;;;;;;;22.45;80.51;100684.53;5055667;28;1600;-43
2021/06/25 02:20:32;;;;;;;;;;;;;;;22.41;80.80;100665.16;5055223;28;1902;-43
2021/06/25 02:23:08;;;;;;;;;;;;;;;22.40;80.57;100676.06;5054844;28;999;-42
2021/06/25 02:25:45;;;;;;;;;;;;;;;22.41;80.63;100658.91;5055753;28;1980;-42
2021/06/25 02:28:24;;;;;;;;;;;;;;;22.41;80.53;100656.22;5055327;28;1980;-42
2021/06/25 02:30:52;;;;;;;;;;;;;;;22.40;80.52;100659.91;5055376;28;1907;-42
2021/06/25 02:33:21;;;;;;;;;;;;;;;22.40;80.67;100651.84;5055622;28;1954;-42
2021/06/25 02:35:49;;;;;;;;;;;;;;;22.45;80.46;100668.38;5051501;28;1773;-42
2021/06/25 02:38:18;;;;;;;;;;;;;;;22.42;80.68;100649.81;5055648;28;1855;-43
2021/06/25 02:40:48;;;;;;;;;;;;;;;22.40;80.68;100657.22;5055404;28;1905;-42
2021/06/25 02:43:27;;;;;;;;;;;;;;;22.41;80.28;100642.75;5055363;28;1892;-43
2021/06/25 02:46:01;;;;;;;;;;;;;;;22.40;80.61;100643.75;5055360;28;1986;-43
2021/06/25 02:48:29;;;;;;;;;;;;;;;22.39;80.59;100642.91;5055047;28;1964;-42
2021/06/25 02:51:04;;;;;;;;;;;;;;;22.40;80.41;100657.22;5055269;28;1945;-42
2021/06/25 02:53:32;;;;;;;;;;;;;;;22.41;80.71;100646.28;5037936;28;1981;-43
2021/06/25 02:55:59;;;;;;;;;;;;;;;22.45;80.58;100654.91;5055160;28;1767;-43
2021/06/25 02:58:34;;;;;;;;;;;;;;;22.43;80.62;100651.53;5055543;28;1084;-42
2021/06/25 03:01:02;;;;;;;;;;;;;;;22.41;80.39;100648.16;5054987;28;1910;-43
2021/06/25 03:03:31;;;;;;;;;;;;;;;22.44;80.51;100642.41;5054782;28;2448;-42
2021/06/25 03:05:57;;;;;;;;;;;;;;;22.40;80.47;100641.06;5054752;28;1752;-42
2021/06/25 03:08:24;;;;;;;;;;;;;;;22.40;80.60;100641.06;5055095;28;1921;-42
2021/06/25 03:10:51;;;;;;;;;;;;;;;22.42;80.46;100653.38;5055080;28;1055;-42
2021/06/25 03:13:20;;;;;;;;;;;;;;;22.41;80.35;100650.84;5055055;28;1015;-42
2021/06/25 03:15:53;;;;;;;;;;;;;;;22.43;80.37;100640.75;5051914;28;1944;-43
2021/06/25 03:18:22;;;;;;;;;;;;;;;22.44;80.36;100653.19;5054857;28;1888;-43
2021/06/25 03:20:48;;;;;;;;;;;;;;;22.43;80.38;100659.59;5050739;28;1971;-42
2021/06/25 03:23:17;;;;;;;;;;;;;;;22.44;80.37;100666.66;5052431;28;1520;-43
2021/06/25 03:25:44;;;;;;;;;;;;;;;22.49;80.21;100666.22;5052216;28;1249;-42
2021/06/25 03:28:11;;;;;;;;;;;;;;;22.46;80.38;100653.88;5050677;28;2069;-43
2021/06/25 03:30:42;;;;;;;;;;;;;;;22.43;80.16;100646.13;5054111;28;1440;-42
2021/06/25 03:33:17;;;;;;;;;;;;;;;22.48;80.17;100659.13;5050194;28;1460;-42
2021/06/25 03:35:44;;;;;;;;;;;;;;;22.46;80.24;100661.13;5053840;28;1522;-42
2021/06/25 03:38:11;;;;;;;;;;;;;;;22.46;80.45;100640.41;5052027;28;1344;-43
2021/06/25 03:40:41;;;;;;;;;;;;;;;22.48;80.17;100643.78;5050123;28;1902;-42
2021/06/25 03:43:08;;;;;;;;;;;;;;;22.49;80.24;100645.47;5048880;28;1655;-43
2021/06/25 03:45:36;;;;;;;;;;;;;;;22.50;80.49;100640.94;5053760;28;1495;-43
2021/06/25 03:48:06;;;;;;;;;;;;;;;22.50;79.99;100651.72;5045426;28;1604;-43
2021/06/25 03:50:45;;;;;;;;;;;;;;;22.49;79.89;100642.78;5053486;28;1474;-42
2021/06/25 03:53:12;;;;;;;;;;;;;;;22.52;79.86;100650.56;5053135;28;1515;-43
2021/06/25 03:56:09;;;;;;;;;;;;;;;22.57;79.93;100658.16;5053915;28;1301;-42
2021/06/25 03:58:26;;;;;;;;;;;;;;;22.55;79.84;100661.00;5047475;28;2289;-42
2021/06/25 04:00:53;;;;;;;;;;;;;;;22.58;79.83;100652.63;5047007;28;1967;-42
2021/06/25 04:03:34;;;;;;;;;;;;;;;22.59;79.58;100667.75;5046177;28;1571;-43
2021/06/25 04:06:05;;;;;;;;;;;;;;;22.59;79.93;100653.44;5052256;28;1561;-42
2021/06/25 04:08:33;;;;;;;;;;;;;;;22.56;79.80;100646.53;5051367;28;1532;-42
2021/06/25 04:11:03;;;;;;;;;;;;;;;22.59;79.68;100651.59;5049265;28;1561;-42
2021/06/25 04:13:34;;;;;;;;;;;;;;;22.64;79.52;100660.03;5051309;28;1380;-43
2021/06/25 04:16:02;;;;;;;;;;;;;;;22.66;79.57;100656.31;5053028;28;1320;-42
2021/06/25 04:18:29;;;;;;;;;;;;;;;22.63;79.31;100652.94;5052733;28;1579;-42
2021/06/25 04:20:57;;;;;;;;;;;;;;;22.72;79.51;100658.38;5047319;28;1906;-42
2021/06/25 04:23:39;;;;;;;;;;;;;;;22.70;79.47;100663.09;5050579;28;1651;-43
2021/06/25 04:26:12;;;;;;;;;;;;;;;22.71;79.49;100659.41;5053454;28;1459;-42
2021/06/25 04:28:59;;;;;;;;;;;;;;;22.70;79.68;100637.00;5043707;28;2020;-43
2021/06/25 04:31:26;;;;;;;;;;;;;;;22.74;79.25;100661.75;5052589;28;1620;-43
2021/06/25 04:33:55;;;;;;;;;;;;;;;22.77;79.21;100647.97;5053535;28;1460;-43
2021/06/25 04:36:21;;;;;;;;;;;;;;;22.77;79.37;100650.66;5049014;28;1475;-42
2021/06/25 04:38:56;;;;;;;;;;;;;;;22.75;79.11;100647.28;5046860;28;1616;-42
2021/06/25 04:41:25;;;;;;;;;;;;;;;22.77;79.11;100646.09;5051411;28;1967;-42
2021/06/25 04:43:53;;;;;;;;;;;;;;;22.78;79.13;100644.22;5044736;28;1624;-42
2021/06/25 04:46:21;;;;;;;;;;;;;;;22.81;79.11;100630.44;5051348;28;1510;-43
2021/06/25 04:48:48;;;;;;;;;;;;;;;22.80;79.12;100653.00;5052755;28;1460;-42
2021/06/25 04:51:16;;;;;;;;;;;;;;;22.81;78.99;100650.16;5053161;28;1891;-43
2021/06/25 04:53:47;;;;;;;;;;;;;;;22.87;79.20;100658.59;5053149;28;1932;-43
2021/06/25 04:56:19;;;;;;;;;;;;;;;22.81;78.90;100638.53;5053060;28;1806;-43
2021/06/25 04:58:51;;;;;;;;;;;;;;;22.84;79.03;100644.44;5053116;28;1791;-43
2021/06/25 05:01:19;;;;;;;;;;;;;;;22.83;79.14;100642.75;5051092;28;1909;-43
2021/06/25 05:03:45;;;;;;;;;;;;;;;22.88;79.09;100644.97;5046857;28;1504;-42
2021/06/25 05:06:13;;;;;;;;;;;;;;;22.86;79.30;100655.06;5049052;28;1667;-42
2021/06/25 05:08:41;;;;;;;;;;;;;;;22.83;79.04;100637.34;5052600;28;1586;-42
2021/06/25 05:11:12;;;;;;;;;;;;;;;22.82;78.52;100635.69;5051335;28;1558;-42
2021/06/25 05:13:39;;;;;;;;;;;;;;;22.85;78.45;100629.09;5051169;28;1549;-42
2021/06/25 05:16:08;;;;;;;;;;;;;;;22.84;79.01;100619.34;5051105;28;1147;-42
2021/06/25 05:18:35;;;;;;;;;;;;;;;22.83;78.81;100633.81;5049461;28;1928;-44
2021/06/25 05:21:03;;;;;;;;;;;;;;;22.84;79.06;100633.66;5050874;28;1902;-42
2021/06/25 05:23:30;;;;;;;;;;;;;;;22.83;79.13;100631.13;5046880;28;1492;-43
2021/06/25 05:25:58;;;;;;;;;;;;;;;22.83;79.03;100633.81;5047313;28;1517;-43
2021/06/25 05:28:29;;;;;;;;;;;;;;;22.86;78.97;100641.59;5043786;28;1602;-42
2021/06/25 05:30:55;;;;;;;;;;;;;;;22.84;78.96;100633.66;5052131;28;1985;-43
2021/06/25 05:33:23;;;;;;;;;;;;;;;22.83;79.21;100614.94;5045102;28;2044;-42
2021/06/25 05:35:50;;;;;;;;;;;;;;;22.83;79.09;100631.13;5040095;28;1526;-44
2021/06/25 05:38:17;;;;;;;;;;;;;;;22.84;78.88;100632.81;5045060;28;2592;-44
2021/06/25 05:40:44;;;;;;;;;;;;;;;22.84;78.88;100620.19;5048690;28;1985;-42
2021/06/25 05:43:11;;;;;;;;;;;;;;;22.85;79.05;100631.81;5047296;28;1985;-43
2021/06/25 05:45:39;;;;;;;;;;;;;;;22.87;79.09;100628.94;5045881;28;1592;-43
2021/06/25 05:48:06;;;;;;;;;;;;;;;22.90;79.07;100632.16;5048802;28;1637;-42
2021/06/25 05:50:38;;;;;;;;;;;;;;;22.87;79.04;100621.69;5049102;28;2100;-42
2021/06/25 05:53:26;;;;;;;;;;;;;;;22.89;78.87;100630.47;5050959;28;1513;-43
2021/06/25 05:55:54;;;;;;;;;;;;;;;22.90;79.14;100642.09;5044504;28;1396;-43
2021/06/25 05:58:21;;;;;;;;;;;;;;;22.89;79.03;100627.75;5055625;28;2396;-42
2021/06/25 06:00:48;;;;;;;;;;;;;;;22.91;78.84;100641.94;5054281;28;1902;-43
2021/06/25 06:03:14;;;;;;;;;;;;;;;22.92;79.07;100645.47;5055847;28;1963;-42
2021/06/25 06:05:47;;;;;;;;;;;;;;;22.93;78.83;100648.00;5055987;28;1867;-44
2021/06/25 06:08:13;;;;;;;;;;;;;;;22.91;78.96;100650.00;5056473;28;1771;-43
2021/06/25 06:10:48;;;;;;;;;;;;;;;22.91;78.95;100658.09;5056130;28;1051;-42
2021/06/25 06:13:15;;;;;;;;;;;;;;;22.90;79.01;100642.94;5056121;28;1846;-43
2021/06/25 06:15:50;;;;;;;;;;;;;;;22.95;78.73;100662.16;5055280;28;1651;-42
2021/06/25 06:18:25;;;;;;;;;;;;;;;22.94;78.90;100654.22;5047249;28;1644;-43
2021/06/25 06:20:54;;;;;;;;;;;;;;;22.92;78.74;100630.16;5054393;28;1972;-42
2021/06/25 06:31:54;;;;;;;;;;;;;;;22.97;78.86;100640.44;5047073;28;1526;-43
2021/06/25 06:34:21;;;;;;;;;;;;;;;22.98;78.80;100645.66;5051968;28;1506;-43
2021/06/25 06:36:55;;;;;;;;;;;;;;;23.00;78.75;100630.16;5055135;28;1452;-42
2021/06/25 06:39:30;;;;;;;;;;;;;;;23.00;79.06;100643.66;5054398;28;1667;-43
2021/06/25 06:41:59;;;;;;;;;;;;;;;23.00;78.78;100649.03;5055335;28;1907;-43
2021/06/25 06:44:26;;;;;;;;;;;;;;;22.99;78.90;100635.72;5055207;28;1719;-42
2021/06/25 06:46:57;;;;;;;;;;;;;;;23.03;78.71;100654.13;5055003;28;1780;-43
2021/06/25 06:49:26;;;;;;;;;;;;;;;23.00;78.88;100649.03;5051704;28;1454;-42
2021/06/25 06:51:59;;;;;;;;;;;;;;;23.03;78.80;100664.91;5051293;28;1208;-42
2021/06/25 06:54:27;;;;;;;;;;;;;;;23.00;78.82;100651.75;5052341;28;1636;-42
2021/06/25 06:56:54;;;;;;;;;;;;;;;23.05;78.82;100651.25;5054115;28;1650;-42
2021/06/25 06:59:24;;;;;;;;;;;;;;;23.01;78.47;100645.31;5054839;28;1661;-42
2021/06/25 07:01:54;;;;;;;;;;;;;;;23.03;78.85;100648.72;5055291;28;1981;-42
2021/06/25 07:04:21;;;;;;;;;;;;;;;23.03;78.85;100648.72;5055028;28;2041;-43
2021/06/25 07:06:50;;;;;;;;;;;;;;;23.01;78.61;100641.78;5054504;28;1953;-43
2021/06/25 07:09:23;;;;;;;;;;;;;;;23.05;79.10;100650.44;5054558;28;1985;-43
2021/06/25 07:11:50;;;;;;;;;;;;;;;23.06;78.91;100641.31;5054645;28;1671;-42
2021/06/25 07:14:18;;;;;;;;;;;;;;;23.02;78.94;100630.88;5054559;28;1660;-42
2021/06/25 07:16:45;;;;;;;;;;;;;;;23.07;78.56;100632.22;5054295;28;1799;-43
2021/06/25 07:19:13;;;;;;;;;;;;;;;23.06;78.95;100635.91;5054314;28;1821;-43
2021/06/25 07:21:43;;;;;;;;;;;;;;;23.02;79.02;100624.66;5054525;28;2048;-43
2021/06/25 07:24:11;;;;;;;;;;;;;;;23.10;79.30;100645.38;5054822;28;1836;-42
2021/06/25 07:26:43;;;;;;;;;;;;;;;23.05;78.82;100647.72;5055023;28;1856;-42
2021/06/25 07:29:13;;;;;;;;;;;;;;;23.05;78.80;100643.19;5048095;28;1592;-42
2021/06/25 07:31:50;;;;;;;;;;;;;;;23.07;78.86;100649.25;5054260;28;1670;-42
2021/06/25 07:34:21;;;;;;;;;;;;;;;23.12;78.63;100648.75;5050884;28;1682;-43
2021/06/25 07:36:49;;;;;;;;;;;;;;;23.11;78.71;100655.16;5054634;28;1162;-42
2021/06/25 07:39:18;;;;;;;;;;;;;;;23.12;78.63;100667.63;5054416;28;1860;-42
2021/06/25 07:41:45;;;;;;;;;;;;;;;23.09;78.76;100665.28;5048390;28;1985;-43
2021/06/25 07:44:12;;;;;;;;;;;;;;;23.05;78.74;100664.75;5053796;28;1718;-42
2021/06/25 07:46:41;;;;;;;;;;;;;;;23.06;78.83;100663.75;5054389;28;1122;-42
2021/06/25 07:49:09;;;;;;;;;;;;;;;23.07;78.38;100664.59;5054050;28;1582;-42
2021/06/25 07:51:37;;;;;;;;;;;;;;;23.06;78.71;100669.16;5052462;28;1801;-42
2021/06/25 07:54:07;;;;;;;;;;;;;;;23.12;78.75;100668.50;5050030;28;1779;-42
2021/06/25 07:56:34;;;;;;;;;;;;;;;23.10;78.82;100672.34;5053764;28;1579;-43
2021/06/25 07:59:06;;;;;;;;;;;;;;;23.08;78.83;100666.25;5051778;28;2070;-43
2021/06/25 08:01:33;;;;;;;;;;;;;;;23.08;79.00;100674.34;5049724;28;1995;-42
2021/06/25 08:03:59;;;;;;;;;;;;;;;23.08;78.95;100666.25;5053938;28;1890;-42
2021/06/25 08:06:28;;;;;;;;;;;;;;;23.03;79.10;100680.25;5053296;28;1807;-43
2021/06/25 08:08:54;;;;;;;;;;;;;;;23.03;79.03;100674.84;5050902;28;1657;-44
2021/06/25 08:11:21;;;;;;;;;;;;;;;23.03;78.87;100659.50;5044252;28;1711;-42
2021/06/25 08:13:47;;;;;;;;;;;;;;;23.08;78.79;100668.97;5040788;28;1361;-42
2021/06/25 08:16:15;;;;;;;;;;;;;;;23.10;78.86;100680.44;5042938;28;1479;-42
2021/06/25 08:18:42;;;;;;;;;;;;;;;23.09;78.48;100674.19;5042618;28;1539;-43
2021/06/25 08:21:08;;;;;;;;;;;;;;;23.09;78.91;100681.47;5045879;28;1914;-42
2021/06/25 08:23:35;;;;;;;;;;;;;;;23.10;78.94;100680.44;5042931;28;1296;-42
2021/06/25 08:26:01;;;;;;;;;;;;;;;23.08;78.91;100683.31;5034166;28;1042;-42
2021/06/25 08:28:28;;;;;;;;;;;;;;;23.14;78.65;100676.38;5042861;28;1261;-42
2021/06/25 08:30:54;;;;;;;;;;;;;;;23.11;78.57;100668.66;5044693;28;1245;-42
2021/06/25 08:33:22;;;;;;;;;;;;;;;23.11;78.87;100682.97;5033741;28;1233;-42
2021/06/25 08:35:49;;;;;;;;;;;;;;;23.08;78.88;100688.72;5034059;28;990;-42
2021/06/25 08:38:15;;;;;;;;;;;;;;;23.12;79.06;100700.84;5033644;28;1178;-42
2021/06/25 08:40:42;;;;;;;;;;;;;;;23.10;78.93;100688.53;5033721;28;1104;-42
2021/06/25 08:43:08;;;;;;;;;;;;;;;23.07;79.11;100686.16;5034126;28;1969;-42
2021/06/25 08:45:38;;;;;;;;;;;;;;;23.04;79.03;100681.97;5034718;28;2250;-44
2021/06/25 08:48:07;;;;;;;;;;;;;;;23.03;79.08;100667.59;5049593;28;1260;-42
2021/06/25 08:50:40;;;;;;;;;;;;;;;23.10;78.85;100680.44;5041774;28;1515;-43
2021/06/25 08:53:07;;;;;;;;;;;;;;;23.08;78.79;100677.06;5042201;28;1522;-43
2021/06/25 08:55:43;;;;;;;;;;;;;;;23.07;78.80;100680.78;5044106;28;2001;-43
2021/06/25 08:58:17;;;;;;;;;;;;;;;23.14;79.08;100692.56;5042985;28;2042;-43
2021/06/25 09:00:46;;;;;;;;;;;;;;;23.08;78.85;100674.34;5046297;28;1341;-43
2021/06/25 09:03:21;;;;;;;;;;;;;;;23.07;79.06;100672.69;5048437;28;1959;-42
2021/06/25 09:05:56;;;;;;;;;;;;;;;23.03;79.11;100670.31;5049786;28;1483;-42
2021/06/25 09:08:29;;;;;;;;;;;;;;;23.08;79.23;100687.84;5044056;28;1600;-42
2021/06/25 09:10:59;;;;;;;;;;;;;;;23.01;78.88;100666.06;5046658;28;1524;-43
2021/06/25 09:13:34;;;;;;;;;;;;;;;23.07;78.90;100668.13;5045909;28;1076;-43
2021/06/25 09:16:03;;;;;;;;;;;;;;;23.06;78.81;100670.97;5049233;28;1477;-42
2021/06/25 09:18:32;;;;;;;;;;;;;;;23.11;79.03;100665.94;5043212;28;1633;-43
2021/06/25 09:21:02;;;;;;;;;;;;;;;23.11;78.90;100674.03;5043236;28;1656;-42
2021/06/25 09:23:36;;;;;;;;;;;;;;;23.12;78.97;100673.88;5036050;28;1994;-42
2021/06/25 09:26:06;;;;;;;;;;;;;;;23.11;78.93;100660.56;5052481;28;1960;-42
2021/06/25 09:28:35;;;;;;;;;;;;;;;23.07;78.93;100651.94;5046537;28;1469;-44
2021/06/25 09:31:11;;;;;;;;;;;;;;;23.06;79.04;100646.72;5045497;28;1243;-42
2021/06/25 09:33:42;;;;;;;;;;;;;;;23.08;78.98;100650.09;5051102;28;1348;-42
2021/06/25 09:36:20;;;;;;;;;;;;;;;23.03;79.01;100632.53;5048343;28;1573;-43
2021/06/25 09:38:47;;;;;;;;;;;;;;;23.09;78.99;100635.59;5049452;28;1496;-43
2021/06/25 09:41:17;;;;;;;;;;;;;;;23.06;79.07;100638.63;5046818;28;2081;-43
2021/06/25 09:43:53;;;;;;;;;;;;;;;23.07;79.04;100638.47;5050429;28;1378;-43
2021/06/25 09:46:24;;;;;;;;;;;;;;;23.01;79.37;100628.31;5052041;28;1564;-43
2021/06/25 09:48:52;;;;;;;;;;;;;;;23.03;79.08;100604.75;5046282;28;1408;-43
2021/06/25 09:51:20;;;;;;;;;;;;;;;23.02;79.11;100635.44;5049725;28;1576;-43
2021/06/25 09:54:01;;;;;;;;;;;;;;;23.06;78.98;100625.13;5049487;28;1695;-44
2021/06/25 09:56:28;;;;;;;;;;;;;;;23.11;78.74;100633.59;5046461;28;1496;-43
2021/06/25 09:59:22;;;;;;;;;;;;;;;23.08;78.90;100626.69;5056255;28;1754;-42
2021/06/25 10:01:47;;;;;;;;;;;;;;;23.05;78.96;100618.06;5054687;28;1910;-42
2021/06/25 10:04:13;;;;;;;;;;;;;;;23.03;79.10;100619.06;5056197;28;2071;-43
2021/06/25 10:06:42;;;;;;;;;;;;;;;23.05;79.05;100613.50;5054182;28;1798;-43
2021/06/25 10:09:09;;;;;;;;;;;;;;;23.05;78.99;100608.13;5056199;28;1627;-43
2021/06/25 10:11:35;;;;;;;;;;;;;;;23.05;79.10;100610.81;5056200;28;1830;-43
2021/06/25 10:14:06;;;;;;;;;;;;;;;23.06;78.77;100600.84;5055611;28;1000;-42
2021/06/25 10:16:32;;;;;;;;;;;;;;;23.07;78.91;100605.25;5056219;28;1854;-42
2021/06/25 10:18:59;;;;;;;;;;;;;;;23.07;78.92;100589.06;5055073;28;1967;-43
2021/06/25 10:21:26;;;;;;;;;;;;;;;23.06;78.84;100582.84;5055553;28;1931;-42
2021/06/25 10:23:55;;;;;;;;;;;;;;;23.07;78.69;100589.91;5053063;28;1582;-43
2021/06/25 10:26:22;;;;;;;;;;;;;;;23.11;79.03;100601.22;5047086;28;1114;-42
2021/06/25 10:28:50;;;;;;;;;;;;;;;23.06;79.00;100582.84;5050297;28;1491;-43
2021/06/25 10:31:17;;;;;;;;;;;;;;;23.03;78.82;100565.13;5050413;28;1648;-42
2021/06/25 10:33:45;;;;;;;;;;;;;;;23.04;79.17;100566.00;5050520;28;1521;-42
2021/06/25 10:36:12;;;;;;;;;;;;;;;23.07;78.89;100572.91;5049138;28;1570;-43
2021/06/25 10:38:41;;;;;;;;;;;;;;;23.05;79.00;100554.16;5050527;28;1469;-43
2021/06/25 10:41:10;;;;;;;;;;;;;;;23.07;78.86;100572.91;5046559;28;1493;-44
2021/06/25 10:43:43;;;;;;;;;;;;;;;23.06;78.94;100557.69;5048337;28;1909;-43
2021/06/25 10:46:34;;;;;;;;;;;;;;;23.06;78.94;100558.56;5052043;28;1790;-43
2021/06/25 10:49:02;;;;;;;;;;;;;;;23.07;79.14;100564.81;5040531;28;1985;-43
2021/06/25 10:51:30;;;;;;;;;;;;;;;23.08;79.16;100567.34;5055371;28;1814;-43
2021/06/25 10:54:10;;;;;;;;;;;;;;;23.07;78.85;100556.72;5055099;28;2040;-42
2021/06/25 10:56:38;;;;;;;;;;;;;;;23.05;79.12;100567.66;5054728;28;1643;-43
2021/06/25 10:59:18;;;;;;;;;;;;;;;23.05;79.08;100566.81;5055352;28;1697;-43
2021/06/25 11:01:49;;;;;;;;;;;;;;;23.03;79.13;100566.97;5052546;28;1973;-42
2021/06/25 11:04:34;;;;;;;;;;;;;;;23.06;78.90;100560.41;5055021;28;1886;-42
2021/06/25 11:07:13;;;;;;;;;;;;;;;23.07;78.92;100564.81;5050041;28;1824;-43
2021/06/25 11:10:00;;;;;;;;;;;;;;;23.06;79.32;100552.31;5053744;28;1770;-42
2021/06/25 11:12:31;;;;;;;;;;;;;;;23.03;79.13;100562.44;5048626;28;1660;-43
2021/06/25 11:15:12;;;;;;;;;;;;;;;23.06;79.02;100555.00;5055077;28;1682;-42
2021/06/25 11:17:50;;;;;;;;;;;;;;;23.06;79.00;100553.19;5053228;28;1645;-43
2021/06/25 11:20:20;;;;;;;;;;;;;;;23.05;79.01;100559.56;5053234;28;1546;-42
2021/06/25 11:22:52;;;;;;;;;;;;;;;23.08;78.85;100569.16;5046789;28;1914;-42
2021/06/25 11:25:33;;;;;;;;;;;;;;;23.06;78.99;100555.88;5049885;28;1516;-42
2021/06/25 11:28:11;;;;;;;;;;;;;;;23.07;79.14;100552.16;5050483;28;1493;-42
2021/06/25 11:30:58;;;;;;;;;;;;;;;23.07;79.01;100548.63;5050619;28;1612;-42
2021/06/25 11:33:25;;;;;;;;;;;;;;;23.08;79.37;100559.25;5049805;28;1758;-43
2021/06/25 11:35:52;;;;;;;;;;;;;;;23.03;79.02;100548.94;5052349;28;1503;-42
2021/06/25 11:38:18;;;;;;;;;;;;;;;23.05;79.20;100564.13;5048872;28;1472;-44
2021/06/25 11:40:48;;;;;;;;;;;;;;;23.05;78.96;100559.56;5046546;28;1625;-43
2021/06/25 11:43:16;;;;;;;;;;;;;;;23.07;79.21;100572.91;5048660;28;1902;-43
2021/06/25 11:45:46;;;;;;;;;;;;;;;23.08;79.06;100561.06;5048069;28;1212;-43
2021/06/25 11:48:13;;;;;;;;;;;;;;;23.06;78.98;100549.63;5051345;28;1376;-43
2021/06/25 11:50:39;;;;;;;;;;;;;;;23.07;79.04;100535.13;5050891;28;1925;-42
2021/06/25 11:53:06;;;;;;;;;;;;;;;23.05;79.02;100538.00;5047161;28;1503;-43
2021/06/25 11:55:32;;;;;;;;;;;;;;;23.06;79.00;100533.44;5047212;28;1341;-42
2021/06/25 11:57:59;;;;;;;;;;;;;;;23.06;79.28;100533.44;5050131;28;1549;-42
2021/06/25 12:00:29;;;;;;;;;;;;;;;23.06;79.07;100538.81;5051763;28;1506;-42
2021/06/25 12:02:56;;;;;;;;;;;;;;;23.10;79.02;100550.97;5049541;28;1930;-42
2021/06/25 12:05:26;;;;;;;;;;;;;;;23.06;79.07;100538.81;5053606;28;1774;-43
2021/06/25 12:08:01;;;;;;;;;;;;;;;23.05;79.20;100537.16;5054210;28;1079;-42
2021/06/25 12:10:27;;;;;;;;;;;;;;;23.03;79.36;100546.25;5052363;28;1829;-42
2021/06/25 12:12:56;;;;;;;;;;;;;;;23.02;79.27;100532.94;5049877;28;1473;-43
2021/06/25 12:15:23;;;;;;;;;;;;;;;23.05;79.23;100537.16;5051266;28;1461;-42
2021/06/25 12:17:51;;;;;;;;;;;;;;;23.06;79.33;100538.81;5051628;28;1454;-42
2021/06/25 12:20:19;;;;;;;;;;;;;;;23.03;78.96;100519.28;5049785;28;1406;-43
2021/06/25 12:22:49;;;;;;;;;;;;;;;23.05;79.01;100534.47;5044551;28;1910;-42
2021/06/25 12:25:26;;;;;;;;;;;;;;;23.05;79.00;100535.28;5049373;28;1548;-43
2021/06/25 12:27:52;;;;;;;;;;;;;;;23.07;79.13;100541.38;5052696;28;1568;-42
2021/06/25 12:30:20;;;;;;;;;;;;;;;23.08;79.24;100539.50;5053380;28;1784;-42
2021/06/25 12:32:58;;;;;;;;;;;;;;;23.06;79.33;100546.91;5053412;28;1675;-42
2021/06/25 12:35:30;;;;;;;;;;;;;;;23.09;78.97;100554.69;5050669;28;1603;-42
2021/06/25 12:37:56;;;;;;;;;;;;;;;23.07;78.96;100537.84;5044581;28;1402;-43
2021/06/25 12:40:43;;;;;;;;;;;;;;;23.05;79.13;100542.56;5047418;28;1541;-43
2021/06/25 12:43:10;;;;;;;;;;;;;;;23.07;79.27;100543.22;5048441;28;1981;-42
2021/06/25 12:45:40;;;;;;;;;;;;;;;23.10;79.11;100550.97;5047606;28;1550;-42
2021/06/25 12:48:11;;;;;;;;;;;;;;;23.10;79.28;100550.97;5049877;28;1484;-42
2021/06/25 12:50:41;;;;;;;;;;;;;;;23.07;79.04;100541.38;5051166;28;1754;-42
2021/06/25 12:53:12;;;;;;;;;;;;;;;23.11;79.01;100549.97;5038870;28;1854;-44
2021/06/25 12:55:39;;;;;;;;;;;;;;;23.09;79.11;100549.28;5052325;28;1490;-43
2021/06/25 12:58:06;;;;;;;;;;;;;;;23.07;79.13;100546.75;5043379;28;1865;-43
2021/06/25 13:00:32;;;;;;;;;;;;;;;23.10;79.04;100553.66;5053075;28;1864;-42
2021/06/25 13:02:59;;;;;;;;;;;;;;;23.05;79.01;100545.25;5050155;28;1989;-43
2021/06/25 13:05:32;;;;;;;;;;;;;;;23.07;79.27;100538.66;5052318;28;1520;-43
2021/06/25 13:08:01;;;;;;;;;;;;;;;23.08;79.12;100539.50;5046961;28;1358;-42